sensor_id;sensor_type;location;lat;lon;timestamp;temperature;humidity
23556;DHT22;11956;53.184;8.578;2023-03-02T00:00:52;2.10;99.90
23556;DHT22;11956;53.184;8.578;2023-03-02T00:03:53;2.10;99.90
23556;DHT22;11956;53.184;8.578;2023-03-02T00:07:01;2.10;99.90
23556;DHT22;11956;53.184;8.578;2023-03-02T00:10:05;2.00;99.90
23556;DHT22;11956;53.184;8.578;2023-03-02T00:13:06;2.00;99.90
23556;DHT22;11956;53.184;8.578;2023-03-02T00:16:07;2.10;99.90
23556;DHT22;11956;53.184;8.578;2023-03-02T00:19:08;2.20;99.90
23556;DHT22;11956;53.184;8.578;2023-03-02T00:22:09;2.20;99.90
23556;DHT22;11956;53.184;8.578;2023-03-02T00:25:11;2.30;99.90
23556;DHT22;11956;53.184;8.578;2023-03-02T00:28:13;2.20;99.90
23556;DHT22;11956;53.184;8.578;2023-03-02T00:31:14;2.20;99.90
23556;DHT22;11956;53.184;8.578;2023-03-02T00:34:15;2.30;99.90
23556;DHT22;11956;53.184;8.578;2023-03-02T00:37:16;2.30;99.90
23556;DHT22;11956;53.184;8.578;2023-03-02T00:40:17;2.30;99.90
23556;DHT22;11956;53.184;8.578;2023-03-02T00:43:18;2.30;99.90
23556;DHT22;11956;53.184;8.578;2023-03-02T00:46:23;2.30;99.90
23556;DHT22;11956;53.184;8.578;2023-03-02T00:49:25;2.40;99.90
23556;DHT22;11956;53.184;8.578;2023-03-02T00:52:27;2.40;99.90
23556;DHT22;11956;53.184;8.578;2023-03-02T00:55:29;2.30;99.90
23556;DHT22;11956;53.184;8.578;2023-03-02T00:58:30;2.20;99.90
23556;DHT22;11956;53.184;8.578;2023-03-02T01:01:32;2.10;99.90
23556;DHT22;11956;53.184;8.578;2023-03-02T01:04:35;2.00;99.90
23556;DHT22;11956;53.184;8.578;2023-03-02T01:07:39;2.00;99.90
23556;DHT22;11956;53.184;8.578;2023-03-02T01:10:40;2.00;99.90
23556;DHT22;11956;53.184;8.578;2023-03-02T01:13:41;1.90;99.90
23556;DHT22;11956;53.184;8.578;2023-03-02T01:16:43;1.80;99.90
23556;DHT22;11956;53.184;8.578;2023-03-02T01:19:44;1.70;99.90
23556;DHT22;11956;53.184;8.578;2023-03-02T01:22:45;1.60;99.90
23556;DHT22;11956;53.184;8.578;2023-03-02T01:25:46;1.60;99.90
23556;DHT22;11956;53.184;8.578;2023-03-02T01:28:47;1.70;99.90
23556;DHT22;11956;53.184;8.578;2023-03-02T01:31:48;1.70;99.90
23556;DHT22;11956;53.184;8.578;2023-03-02T01:34:49;1.80;99.90
23556;DHT22;11956;53.184;8.578;2023-03-02T01:37:50;1.70;99.90
23556;DHT22;11956;53.184;8.578;2023-03-02T01:48:51;1.50;99.90
23556;DHT22;11956;53.184;8.578;2023-03-02T01:52:04;1.40;99.90
23556;DHT22;11956;53.184;8.578;2023-03-02T01:55:09;1.40;99.90
23556;DHT22;11956;53.184;8.578;2023-03-02T01:58:14;1.30;99.90
23556;DHT22;11956;53.184;8.578;2023-03-02T02:01:16;1.30;99.90
23556;DHT22;11956;53.184;8.578;2023-03-02T02:04:17;1.30;99.90
23556;DHT22;11956;53.184;8.578;2023-03-02T02:07:19;1.30;99.90
23556;DHT22;11956;53.184;8.578;2023-03-02T02:10:20;1.30;99.90
23556;DHT22;11956;53.184;8.578;2023-03-02T02:13:20;1.40;99.90
23556;DHT22;11956;53.184;8.578;2023-03-02T02:16:22;1.30;99.90
23556;DHT22;11956;53.184;8.578;2023-03-02T02:26:52;1.20;99.90
23556;DHT22;11956;53.184;8.578;2023-03-02T02:29:52;1.20;99.90
23556;DHT22;11956;53.184;8.578;2023-03-02T02:32:55;1.20;99.90
23556;DHT22;11956;53.184;8.578;2023-03-02T02:36:06;1.10;99.90
23556;DHT22;11956;53.184;8.578;2023-03-02T02:39:16;1.10;99.90
23556;DHT22;11956;53.184;8.578;2023-03-02T02:45:28;1.00;99.90
23556;DHT22;11956;53.184;8.578;2023-03-02T02:48:31;0.80;99.90
23556;DHT22;11956;53.184;8.578;2023-03-02T02:51:33;0.80;99.90
23556;DHT22;11956;53.184;8.578;2023-03-02T02:54:35;0.80;99.90
23556;DHT22;11956;53.184;8.578;2023-03-02T02:57:37;0.80;99.90
23556;DHT22;11956;53.184;8.578;2023-03-02T03:00:38;0.80;99.90
23556;DHT22;11956;53.184;8.578;2023-03-02T03:03:45;0.80;99.90
23556;DHT22;11956;53.184;8.578;2023-03-02T03:06:56;0.80;99.90
23556;DHT22;11956;53.184;8.578;2023-03-02T03:10:24;0.60;99.90
23556;DHT22;11956;53.184;8.578;2023-03-02T03:13:28;0.70;99.90
23556;DHT22;11956;53.184;8.578;2023-03-02T03:16:30;0.70;99.90
23556;DHT22;11956;53.184;8.578;2023-03-02T03:19:32;0.80;99.90
23556;DHT22;11956;53.184;8.578;2023-03-02T03:22:35;0.80;99.90
23556;DHT22;11956;53.184;8.578;2023-03-02T03:25:37;0.80;99.90
23556;DHT22;11956;53.184;8.578;2023-03-02T03:28:38;0.80;99.90
23556;DHT22;11956;53.184;8.578;2023-03-02T03:31:40;0.80;99.90
23556;DHT22;11956;53.184;8.578;2023-03-02T03:34:41;0.70;99.90
23556;DHT22;11956;53.184;8.578;2023-03-02T03:37:49;0.70;99.90
23556;DHT22;11956;53.184;8.578;2023-03-02T03:40:52;0.70;99.90
23556;DHT22;11956;53.184;8.578;2023-03-02T03:43:53;0.70;99.90
23556;DHT22;11956;53.184;8.578;2023-03-02T03:46:55;0.60;99.90
23556;DHT22;11956;53.184;8.578;2023-03-02T03:49:56;0.70;99.90
23556;DHT22;11956;53.184;8.578;2023-03-02T03:52:57;0.60;99.90
23556;DHT22;11956;53.184;8.578;2023-03-02T03:56:02;0.60;99.90
23556;DHT22;11956;53.184;8.578;2023-03-02T03:59:05;0.50;99.90
23556;DHT22;11956;53.184;8.578;2023-03-02T04:02:11;0.40;99.90
23556;DHT22;11956;53.184;8.578;2023-03-02T04:05:16;0.50;99.90
23556;DHT22;11956;53.184;8.578;2023-03-02T04:08:18;0.50;99.90
23556;DHT22;11956;53.184;8.578;2023-03-02T04:11:19;0.40;99.90
23556;DHT22;11956;53.184;8.578;2023-03-02T04:14:21;0.30;99.90
23556;DHT22;11956;53.184;8.578;2023-03-02T04:17:24;0.30;99.90
23556;DHT22;11956;53.184;8.578;2023-03-02T04:20:26;0.40;99.90
23556;DHT22;11956;53.184;8.578;2023-03-02T04:23:29;0.40;99.90
23556;DHT22;11956;53.184;8.578;2023-03-02T04:26:31;0.10;99.90
23556;DHT22;11956;53.184;8.578;2023-03-02T04:29:32;0.10;99.90
23556;DHT22;11956;53.184;8.578;2023-03-02T04:32:36;0.10;99.90
23556;DHT22;11956;53.184;8.578;2023-03-02T04:35:37;0.10;99.90
23556;DHT22;11956;53.184;8.578;2023-03-02T04:38:38;0.20;99.90
23556;DHT22;11956;53.184;8.578;2023-03-02T04:41:39;0.20;99.90
23556;DHT22;11956;53.184;8.578;2023-03-02T04:44:40;0.20;99.90
23556;DHT22;11956;53.184;8.578;2023-03-02T04:47:41;0.20;99.90
23556;DHT22;11956;53.184;8.578;2023-03-02T04:50:42;0.20;99.90
23556;DHT22;11956;53.184;8.578;2023-03-02T04:53:43;0.30;99.90
23556;DHT22;11956;53.184;8.578;2023-03-02T04:56:44;0.30;99.90
23556;DHT22;11956;53.184;8.578;2023-03-02T04:59:47;0.30;99.90
23556;DHT22;11956;53.184;8.578;2023-03-02T05:02:48;0.30;99.90
23556;DHT22;11956;53.184;8.578;2023-03-02T05:05:49;0.20;99.90
23556;DHT22;11956;53.184;8.578;2023-03-02T05:08:51;0.20;99.90
23556;DHT22;11956;53.184;8.578;2023-03-02T05:11:57;0.10;99.90
23556;DHT22;11956;53.184;8.578;2023-03-02T05:14:59;0.10;99.90
23556;DHT22;11956;53.184;8.578;2023-03-02T05:18:01;0.10;99.90
23556;DHT22;11956;53.184;8.578;2023-03-02T05:21:02;0.20;99.90
23556;DHT22;11956;53.184;8.578;2023-03-02T05:24:04;0.20;99.90
23556;DHT22;11956;53.184;8.578;2023-03-02T05:27:05;0.20;99.90
23556;DHT22;11956;53.184;8.578;2023-03-02T05:30:06;0.20;99.90
23556;DHT22;11956;53.184;8.578;2023-03-02T05:33:08;0.20;99.90
23556;DHT22;11956;53.184;8.578;2023-03-02T05:36:09;0.20;99.90
23556;DHT22;11956;53.184;8.578;2023-03-02T05:39:10;0.30;99.90
23556;DHT22;11956;53.184;8.578;2023-03-02T05:42:11;0.30;99.90
23556;DHT22;11956;53.184;8.578;2023-03-02T05:45:20;0.30;99.90
23556;DHT22;11956;53.184;8.578;2023-03-02T05:48:22;0.30;99.90
23556;DHT22;11956;53.184;8.578;2023-03-02T05:51:23;0.20;99.90
23556;DHT22;11956;53.184;8.578;2023-03-02T05:54:24;0.10;99.90
23556;DHT22;11956;53.184;8.578;2023-03-02T05:57:25;0.20;99.90
23556;DHT22;11956;53.184;8.578;2023-03-02T06:00:26;0.20;99.90
23556;DHT22;11956;53.184;8.578;2023-03-02T06:03:27;0.30;99.90
23556;DHT22;11956;53.184;8.578;2023-03-02T06:06:28;0.40;99.90
23556;DHT22;11956;53.184;8.578;2023-03-02T06:09:29;0.30;99.90
23556;DHT22;11956;53.184;8.578;2023-03-02T06:12:30;0.30;99.90
23556;DHT22;11956;53.184;8.578;2023-03-02T06:15:31;0.20;99.90
23556;DHT22;11956;53.184;8.578;2023-03-02T06:18:32;-0.10;99.90
23556;DHT22;11956;53.184;8.578;2023-03-02T06:21:33;0.00;99.90
23556;DHT22;11956;53.184;8.578;2023-03-02T06:24:34;0.00;99.90
23556;DHT22;11956;53.184;8.578;2023-03-02T06:27:37;0.00;99.90
23556;DHT22;11956;53.184;8.578;2023-03-02T06:30:38;0.00;99.90
23556;DHT22;11956;53.184;8.578;2023-03-02T06:33:39;0.00;99.90
23556;DHT22;11956;53.184;8.578;2023-03-02T06:36:40;0.10;99.90
23556;DHT22;11956;53.184;8.578;2023-03-02T06:39:41;0.10;99.90
23556;DHT22;11956;53.184;8.578;2023-03-02T06:42:42;0.10;99.90
23556;DHT22;11956;53.184;8.578;2023-03-02T06:45:43;0.10;99.90
23556;DHT22;11956;53.184;8.578;2023-03-02T06:48:44;0.10;99.90
23556;DHT22;11956;53.184;8.578;2023-03-02T06:51:45;0.20;99.90
23556;DHT22;11956;53.184;8.578;2023-03-02T06:54:46;0.20;99.90
23556;DHT22;11956;53.184;8.578;2023-03-02T06:57:47;0.30;99.90
23556;DHT22;11956;53.184;8.578;2023-03-02T07:00:48;0.30;99.90
23556;DHT22;11956;53.184;8.578;2023-03-02T07:03:48;0.40;99.90
23556;DHT22;11956;53.184;8.578;2023-03-02T07:06:50;0.50;99.90
23556;DHT22;11956;53.184;8.578;2023-03-02T07:09:50;0.50;99.90
23556;DHT22;11956;53.184;8.578;2023-03-02T07:12:51;0.10;99.90
23556;DHT22;11956;53.184;8.578;2023-03-02T07:15:53;0.10;99.90
23556;DHT22;11956;53.184;8.578;2023-03-02T07:18:54;0.10;99.90
23556;DHT22;11956;53.184;8.578;2023-03-02T07:21:55;0.20;99.90
23556;DHT22;11956;53.184;8.578;2023-03-02T07:24:56;0.20;99.90
23556;DHT22;11956;53.184;8.578;2023-03-02T07:27:56;0.40;99.90
23556;DHT22;11956;53.184;8.578;2023-03-02T07:30:57;0.40;99.90
23556;DHT22;11956;53.184;8.578;2023-03-02T07:33:58;0.40;99.90
23556;DHT22;11956;53.184;8.578;2023-03-02T07:36:59;0.60;99.90
23556;DHT22;11956;53.184;8.578;2023-03-02T07:40:00;0.70;99.90
23556;DHT22;11956;53.184;8.578;2023-03-02T07:43:02;0.80;99.90
23556;DHT22;11956;53.184;8.578;2023-03-02T07:46:03;1.00;99.90
23556;DHT22;11956;53.184;8.578;2023-03-02T07:49:04;1.10;99.90
23556;DHT22;11956;53.184;8.578;2023-03-02T07:52:05;1.10;99.90
23556;DHT22;11956;53.184;8.578;2023-03-02T07:55:06;1.00;99.90
23556;DHT22;11956;53.184;8.578;2023-03-02T07:58:08;1.00;99.90
23556;DHT22;11956;53.184;8.578;2023-03-02T08:01:09;1.10;99.90
23556;DHT22;11956;53.184;8.578;2023-03-02T08:04:09;1.10;99.90
23556;DHT22;11956;53.184;8.578;2023-03-02T08:07:11;1.20;99.90
23556;DHT22;11956;53.184;8.578;2023-03-02T08:10:11;1.30;99.90
23556;DHT22;11956;53.184;8.578;2023-03-02T08:13:12;1.40;99.90
23556;DHT22;11956;53.184;8.578;2023-03-02T08:16:14;1.40;99.90
23556;DHT22;11956;53.184;8.578;2023-03-02T08:19:15;1.20;99.90
23556;DHT22;11956;53.184;8.578;2023-03-02T08:22:16;1.20;99.90
23556;DHT22;11956;53.184;8.578;2023-03-02T08:25:17;1.30;99.90
23556;DHT22;11956;53.184;8.578;2023-03-02T08:28:19;1.40;99.90
23556;DHT22;11956;53.184;8.578;2023-03-02T08:31:21;1.40;99.90
23556;DHT22;11956;53.184;8.578;2023-03-02T08:34:22;1.40;99.90
23556;DHT22;11956;53.184;8.578;2023-03-02T08:37:22;1.40;99.90
23556;DHT22;11956;53.184;8.578;2023-03-02T08:40:24;1.30;99.90
23556;DHT22;11956;53.184;8.578;2023-03-02T08:43:25;1.20;99.90
23556;DHT22;11956;53.184;8.578;2023-03-02T08:46:26;1.30;99.90
23556;DHT22;11956;53.184;8.578;2023-03-02T08:49:27;1.10;99.90
23556;DHT22;11956;53.184;8.578;2023-03-02T08:52:28;1.30;99.90
23556;DHT22;11956;53.184;8.578;2023-03-02T08:55:33;1.40;99.90
23556;DHT22;11956;53.184;8.578;2023-03-02T08:58:35;1.60;99.90
23556;DHT22;11956;53.184;8.578;2023-03-02T09:01:36;1.80;99.90
23556;DHT22;11956;53.184;8.578;2023-03-02T09:04:38;1.80;99.90
23556;DHT22;11956;53.184;8.578;2023-03-02T09:07:39;1.50;99.90
23556;DHT22;11956;53.184;8.578;2023-03-02T09:10:40;1.20;99.90
23556;DHT22;11956;53.184;8.578;2023-03-02T09:13:41;1.10;99.90
23556;DHT22;11956;53.184;8.578;2023-03-02T09:16:42;1.10;99.90
23556;DHT22;11956;53.184;8.578;2023-03-02T09:19:44;1.30;99.90
23556;DHT22;11956;53.184;8.578;2023-03-02T09:22:45;1.70;99.90
23556;DHT22;11956;53.184;8.578;2023-03-02T09:25:50;2.00;99.90
23556;DHT22;11956;53.184;8.578;2023-03-02T09:28:51;2.40;99.90
23556;DHT22;11956;53.184;8.578;2023-03-02T09:31:52;2.50;99.90
23556;DHT22;11956;53.184;8.578;2023-03-02T09:34:53;2.70;99.90
23556;DHT22;11956;53.184;8.578;2023-03-02T09:37:55;2.90;99.90
23556;DHT22;11956;53.184;8.578;2023-03-02T09:44:38;3.00;99.90
23556;DHT22;11956;53.184;8.578;2023-03-02T09:48:48;3.20;99.90
23556;DHT22;11956;53.184;8.578;2023-03-02T09:55:14;3.50;99.90
23556;DHT22;11956;53.184;8.578;2023-03-02T09:58:18;3.60;99.90
23556;DHT22;11956;53.184;8.578;2023-03-02T10:02:16;3.70;99.90
23556;DHT22;11956;53.184;8.578;2023-03-02T10:05:16;3.80;99.90
23556;DHT22;11956;53.184;8.578;2023-03-02T10:08:26;3.90;99.90
23556;DHT22;11956;53.184;8.578;2023-03-02T10:15:04;4.00;99.90
23556;DHT22;11956;53.184;8.578;2023-03-02T10:18:22;3.70;99.90
23556;DHT22;11956;53.184;8.578;2023-03-02T10:21:26;3.90;99.90
23556;DHT22;11956;53.184;8.578;2023-03-02T10:24:37;4.10;99.90
23556;DHT22;11956;53.184;8.578;2023-03-02T10:27:41;3.80;99.90
23556;DHT22;11956;53.184;8.578;2023-03-02T10:30:44;3.60;99.90
23556;DHT22;11956;53.184;8.578;2023-03-02T10:33:46;3.70;99.90
23556;DHT22;11956;53.184;8.578;2023-03-02T10:36:48;4.00;99.90
23556;DHT22;11956;53.184;8.578;2023-03-02T10:39:49;3.90;99.90
23556;DHT22;11956;53.184;8.578;2023-03-02T10:42:50;4.10;99.90
23556;DHT22;11956;53.184;8.578;2023-03-02T10:49:00;4.00;99.90
23556;DHT22;11956;53.184;8.578;2023-03-02T10:52:13;3.90;99.90
23556;DHT22;11956;53.184;8.578;2023-03-02T10:55:15;4.00;99.90
23556;DHT22;11956;53.184;8.578;2023-03-02T10:58:29;4.20;99.90
23556;DHT22;11956;53.184;8.578;2023-03-02T11:01:31;4.50;99.90
23556;DHT22;11956;53.184;8.578;2023-03-02T11:04:32;4.50;99.90
23556;DHT22;11956;53.184;8.578;2023-03-02T11:07:33;4.50;99.90
23556;DHT22;11956;53.184;8.578;2023-03-02T11:10:37;4.50;99.90
23556;DHT22;11956;53.184;8.578;2023-03-02T11:13:50;4.20;99.90
23556;DHT22;11956;53.184;8.578;2023-03-02T11:16:52;4.10;99.90
23556;DHT22;11956;53.184;8.578;2023-03-02T11:19:53;3.90;99.90
23556;DHT22;11956;53.184;8.578;2023-03-02T11:26:43;4.10;99.90
23556;DHT22;11956;53.184;8.578;2023-03-02T11:29:54;4.00;99.90
23556;DHT22;11956;53.184;8.578;2023-03-02T11:33:15;3.80;99.90
23556;DHT22;11956;53.184;8.578;2023-03-02T11:36:28;3.50;99.90
23556;DHT22;11956;53.184;8.578;2023-03-02T11:42:49;4.10;99.90
23556;DHT22;11956;53.184;8.578;2023-03-02T11:46:06;4.20;99.90
23556;DHT22;11956;53.184;8.578;2023-03-02T11:49:24;4.50;99.90
23556;DHT22;11956;53.184;8.578;2023-03-02T11:52:36;4.70;99.90
23556;DHT22;11956;53.184;8.578;2023-03-02T11:55:45;4.70;99.90
23556;DHT22;11956;53.184;8.578;2023-03-02T11:59:09;5.00;99.90
23556;DHT22;11956;53.184;8.578;2023-03-02T12:02:14;5.20;99.90
23556;DHT22;11956;53.184;8.578;2023-03-02T12:05:27;5.30;99.90
23556;DHT22;11956;53.184;8.578;2023-03-02T12:11:38;5.80;99.90
23556;DHT22;11956;53.184;8.578;2023-03-02T12:14:40;5.70;99.90
23556;DHT22;11956;53.184;8.578;2023-03-02T12:17:41;5.70;99.90
23556;DHT22;11956;53.184;8.578;2023-03-02T12:20:42;5.60;99.90
23556;DHT22;11956;53.184;8.578;2023-03-02T12:33:21;6.70;99.90
23556;DHT22;11956;53.184;8.578;2023-03-02T12:36:29;6.80;99.90
23556;DHT22;11956;53.184;8.578;2023-03-02T12:46:57;6.20;99.90
23556;DHT22;11956;53.184;8.578;2023-03-02T12:50:13;6.00;99.90
23556;DHT22;11956;53.184;8.578;2023-03-02T12:53:19;5.90;99.90
23556;DHT22;11956;53.184;8.578;2023-03-02T12:56:24;5.90;99.90
23556;DHT22;11956;53.184;8.578;2023-03-02T12:59:26;5.80;99.90
23556;DHT22;11956;53.184;8.578;2023-03-02T13:02:30;5.80;99.90
23556;DHT22;11956;53.184;8.578;2023-03-02T13:05:34;5.70;99.90
23556;DHT22;11956;53.184;8.578;2023-03-02T13:08:36;5.80;99.90
23556;DHT22;11956;53.184;8.578;2023-03-02T13:11:37;6.00;99.90
23556;DHT22;11956;53.184;8.578;2023-03-02T13:14:40;6.30;99.90
23556;DHT22;11956;53.184;8.578;2023-03-02T13:17:44;6.40;99.90
23556;DHT22;11956;53.184;8.578;2023-03-02T13:20:53;6.20;99.90
23556;DHT22;11956;53.184;8.578;2023-03-02T13:23:55;6.30;99.90
23556;DHT22;11956;53.184;8.578;2023-03-02T13:26:58;6.30;99.90
23556;DHT22;11956;53.184;8.578;2023-03-02T13:30:11;6.30;99.90
23556;DHT22;11956;53.184;8.578;2023-03-02T13:33:22;6.50;99.90
23556;DHT22;11956;53.184;8.578;2023-03-02T13:36:35;6.70;99.90
23556;DHT22;11956;53.184;8.578;2023-03-02T13:39:37;7.00;99.90
23556;DHT22;11956;53.184;8.578;2023-03-02T13:42:39;7.00;99.90
23556;DHT22;11956;53.184;8.578;2023-03-02T13:45:57;6.80;99.90
23556;DHT22;11956;53.184;8.578;2023-03-02T13:49:04;6.70;99.90
23556;DHT22;11956;53.184;8.578;2023-03-02T13:52:15;6.60;99.90
23556;DHT22;11956;53.184;8.578;2023-03-02T13:55:21;6.70;99.90
23556;DHT22;11956;53.184;8.578;2023-03-02T13:58:23;6.50;99.90
23556;DHT22;11956;53.184;8.578;2023-03-02T14:01:26;6.50;99.90
23556;DHT22;11956;53.184;8.578;2023-03-02T14:04:27;6.30;99.90
23556;DHT22;11956;53.184;8.578;2023-03-02T14:07:28;6.50;99.90
23556;DHT22;11956;53.184;8.578;2023-03-02T14:10:29;6.50;99.90
23556;DHT22;11956;53.184;8.578;2023-03-02T14:13:49;6.50;99.90
23556;DHT22;11956;53.184;8.578;2023-03-02T14:16:52;6.70;99.90
23556;DHT22;11956;53.184;8.578;2023-03-02T14:19:53;6.90;99.90
23556;DHT22;11956;53.184;8.578;2023-03-02T14:22:54;6.60;99.90
23556;DHT22;11956;53.184;8.578;2023-03-02T14:25:55;6.60;99.90
23556;DHT22;11956;53.184;8.578;2023-03-02T14:28:58;6.70;99.90
23556;DHT22;11956;53.184;8.578;2023-03-02T14:32:04;6.80;99.90
23556;DHT22;11956;53.184;8.578;2023-03-02T14:35:11;6.60;99.90
23556;DHT22;11956;53.184;8.578;2023-03-02T14:38:13;6.50;99.90
23556;DHT22;11956;53.184;8.578;2023-03-02T14:41:20;6.60;99.90
23556;DHT22;11956;53.184;8.578;2023-03-02T14:44:23;6.70;99.90
23556;DHT22;11956;53.184;8.578;2023-03-02T14:47:24;6.90;99.90
23556;DHT22;11956;53.184;8.578;2023-03-02T14:50:25;6.90;99.90
23556;DHT22;11956;53.184;8.578;2023-03-02T14:53:29;6.90;99.90
23556;DHT22;11956;53.184;8.578;2023-03-02T14:56:32;6.70;99.90
23556;DHT22;11956;53.184;8.578;2023-03-02T14:59:33;6.60;99.90
23556;DHT22;11956;53.184;8.578;2023-03-02T15:02:35;6.40;99.90
23556;DHT22;11956;53.184;8.578;2023-03-02T15:05:35;6.20;99.90
23556;DHT22;11956;53.184;8.578;2023-03-02T15:08:36;6.00;99.90
23556;DHT22;11956;53.184;8.578;2023-03-02T15:11:37;6.00;99.90
23556;DHT22;11956;53.184;8.578;2023-03-02T15:14:39;5.90;99.90
23556;DHT22;11956;53.184;8.578;2023-03-02T15:17:40;5.80;99.90
23556;DHT22;11956;53.184;8.578;2023-03-02T15:20:41;5.80;99.90
23556;DHT22;11956;53.184;8.578;2023-03-02T15:23:42;5.80;99.90
23556;DHT22;11956;53.184;8.578;2023-03-02T15:26:43;5.80;99.90
23556;DHT22;11956;53.184;8.578;2023-03-02T15:29:45;5.90;99.90
23556;DHT22;11956;53.184;8.578;2023-03-02T15:32:46;5.90;99.90
23556;DHT22;11956;53.184;8.578;2023-03-02T15:35:53;5.90;99.90
23556;DHT22;11956;53.184;8.578;2023-03-02T15:38:54;5.80;99.90
23556;DHT22;11956;53.184;8.578;2023-03-02T15:41:55;5.70;99.90
23556;DHT22;11956;53.184;8.578;2023-03-02T15:44:56;5.60;99.90
23556;DHT22;11956;53.184;8.578;2023-03-02T15:47:56;5.50;99.90
23556;DHT22;11956;53.184;8.578;2023-03-02T15:50:59;5.40;99.90
23556;DHT22;11956;53.184;8.578;2023-03-02T15:54:01;5.30;99.90
23556;DHT22;11956;53.184;8.578;2023-03-02T15:57:01;5.20;99.90
23556;DHT22;11956;53.184;8.578;2023-03-02T16:00:03;5.10;99.90
23556;DHT22;11956;53.184;8.578;2023-03-02T16:03:05;5.10;99.90
23556;DHT22;11956;53.184;8.578;2023-03-02T16:06:06;5.00;99.90
23556;DHT22;11956;53.184;8.578;2023-03-02T16:09:08;4.90;99.90
23556;DHT22;11956;53.184;8.578;2023-03-02T16:12:09;4.90;99.90
23556;DHT22;11956;53.184;8.578;2023-03-02T16:15:10;4.80;99.90
23556;DHT22;11956;53.184;8.578;2023-03-02T16:18:11;4.70;99.90
23556;DHT22;11956;53.184;8.578;2023-03-02T16:21:13;4.60;99.90
23556;DHT22;11956;53.184;8.578;2023-03-02T16:24:14;4.40;99.90
23556;DHT22;11956;53.184;8.578;2023-03-02T16:27:16;4.30;99.90
23556;DHT22;11956;53.184;8.578;2023-03-02T16:30:17;4.30;99.90
23556;DHT22;11956;53.184;8.578;2023-03-02T16:33:18;4.10;99.90
23556;DHT22;11956;53.184;8.578;2023-03-02T16:36:20;4.10;99.90
23556;DHT22;11956;53.184;8.578;2023-03-02T16:39:21;4.00;99.90
23556;DHT22;11956;53.184;8.578;2023-03-02T16:42:22;3.90;99.90
23556;DHT22;11956;53.184;8.578;2023-03-02T16:45:24;3.90;99.90
23556;DHT22;11956;53.184;8.578;2023-03-02T16:48:26;3.90;99.90
23556;DHT22;11956;53.184;8.578;2023-03-02T16:51:27;3.80;99.90
23556;DHT22;11956;53.184;8.578;2023-03-02T16:54:28;3.70;99.90
23556;DHT22;11956;53.184;8.578;2023-03-02T16:57:29;3.70;99.90
23556;DHT22;11956;53.184;8.578;2023-03-02T17:00:29;3.60;99.90
23556;DHT22;11956;53.184;8.578;2023-03-02T17:03:30;3.60;99.90
23556;DHT22;11956;53.184;8.578;2023-03-02T17:06:31;3.60;99.90
23556;DHT22;11956;53.184;8.578;2023-03-02T17:09:36;3.60;99.90
23556;DHT22;11956;53.184;8.578;2023-03-02T17:12:40;3.50;99.90
23556;DHT22;11956;53.184;8.578;2023-03-02T17:15:41;3.50;99.90
23556;DHT22;11956;53.184;8.578;2023-03-02T17:18:43;3.40;99.90
23556;DHT22;11956;53.184;8.578;2023-03-02T17:21:47;3.30;99.90
23556;DHT22;11956;53.184;8.578;2023-03-02T17:24:48;3.30;99.90
23556;DHT22;11956;53.184;8.578;2023-03-02T17:27:49;3.20;99.90
23556;DHT22;11956;53.184;8.578;2023-03-02T17:30:50;3.20;99.90
23556;DHT22;11956;53.184;8.578;2023-03-02T17:33:51;3.20;99.90
23556;DHT22;11956;53.184;8.578;2023-03-02T17:36:52;3.20;99.90
23556;DHT22;11956;53.184;8.578;2023-03-02T17:39:53;3.30;99.90
23556;DHT22;11956;53.184;8.578;2023-03-02T17:42:54;3.30;99.90
23556;DHT22;11956;53.184;8.578;2023-03-02T17:45:55;3.20;99.90
23556;DHT22;11956;53.184;8.578;2023-03-02T17:48:58;3.20;99.90
23556;DHT22;11956;53.184;8.578;2023-03-02T17:51:59;3.30;99.90
23556;DHT22;11956;53.184;8.578;2023-03-02T17:55:00;3.30;99.90
23556;DHT22;11956;53.184;8.578;2023-03-02T17:58:01;3.20;99.90
23556;DHT22;11956;53.184;8.578;2023-03-02T18:01:02;3.20;99.90
23556;DHT22;11956;53.184;8.578;2023-03-02T18:04:04;3.30;99.90
23556;DHT22;11956;53.184;8.578;2023-03-02T18:07:04;3.40;99.90
23556;DHT22;11956;53.184;8.578;2023-03-02T18:10:06;3.40;99.90
23556;DHT22;11956;53.184;8.578;2023-03-02T18:13:07;3.40;99.90
23556;DHT22;11956;53.184;8.578;2023-03-02T18:16:08;3.20;99.90
23556;DHT22;11956;53.184;8.578;2023-03-02T18:19:09;3.10;99.90
23556;DHT22;11956;53.184;8.578;2023-03-02T18:22:10;3.10;99.90
23556;DHT22;11956;53.184;8.578;2023-03-02T18:25:11;3.10;99.90
23556;DHT22;11956;53.184;8.578;2023-03-02T18:28:12;3.00;99.90
23556;DHT22;11956;53.184;8.578;2023-03-02T18:31:15;2.90;99.90
23556;DHT22;11956;53.184;8.578;2023-03-02T18:34:17;2.90;99.90
23556;DHT22;11956;53.184;8.578;2023-03-02T18:37:19;2.90;99.90
23556;DHT22;11956;53.184;8.578;2023-03-02T18:40:20;2.90;99.90
23556;DHT22;11956;53.184;8.578;2023-03-02T18:43:21;2.80;99.90
23556;DHT22;11956;53.184;8.578;2023-03-02T18:46:24;2.90;99.90
23556;DHT22;11956;53.184;8.578;2023-03-02T18:49:27;3.00;99.90
23556;DHT22;11956;53.184;8.578;2023-03-02T18:52:29;3.10;99.90
23556;DHT22;11956;53.184;8.578;2023-03-02T18:55:30;3.00;99.90
23556;DHT22;11956;53.184;8.578;2023-03-02T18:58:31;2.90;99.90
23556;DHT22;11956;53.184;8.578;2023-03-02T19:01:33;2.90;99.90
23556;DHT22;11956;53.184;8.578;2023-03-02T19:04:35;2.90;99.90
23556;DHT22;11956;53.184;8.578;2023-03-02T19:07:36;3.00;99.90
23556;DHT22;11956;53.184;8.578;2023-03-02T19:10:37;3.10;99.90
23556;DHT22;11956;53.184;8.578;2023-03-02T19:13:39;3.00;99.90
23556;DHT22;11956;53.184;8.578;2023-03-02T19:16:40;3.10;99.90
23556;DHT22;11956;53.184;8.578;2023-03-02T19:19:40;3.10;99.90
23556;DHT22;11956;53.184;8.578;2023-03-02T19:22:41;3.10;99.90
23556;DHT22;11956;53.184;8.578;2023-03-02T19:25:44;3.00;99.90
23556;DHT22;11956;53.184;8.578;2023-03-02T19:28:45;3.00;99.90
23556;DHT22;11956;53.184;8.578;2023-03-02T19:31:46;3.00;99.90
23556;DHT22;11956;53.184;8.578;2023-03-02T19:34:47;2.90;99.90
23556;DHT22;11956;53.184;8.578;2023-03-02T19:37:49;2.80;99.90
23556;DHT22;11956;53.184;8.578;2023-03-02T19:40:50;2.80;99.90
23556;DHT22;11956;53.184;8.578;2023-03-02T19:43:51;2.90;99.90
23556;DHT22;11956;53.184;8.578;2023-03-02T19:46:52;2.90;99.90
23556;DHT22;11956;53.184;8.578;2023-03-02T19:49:52;2.90;99.90
23556;DHT22;11956;53.184;8.578;2023-03-02T19:52:54;2.90;99.90
23556;DHT22;11956;53.184;8.578;2023-03-02T19:56:05;2.90;99.90
23556;DHT22;11956;53.184;8.578;2023-03-02T19:59:10;2.90;99.90
23556;DHT22;11956;53.184;8.578;2023-03-02T20:02:11;2.80;99.90
23556;DHT22;11956;53.184;8.578;2023-03-02T20:05:14;2.90;99.90
23556;DHT22;11956;53.184;8.578;2023-03-02T20:08:15;2.90;99.90
23556;DHT22;11956;53.184;8.578;2023-03-02T20:11:17;2.90;99.90
23556;DHT22;11956;53.184;8.578;2023-03-02T20:14:18;2.80;99.90
23556;DHT22;11956;53.184;8.578;2023-03-02T20:17:19;2.80;99.90
23556;DHT22;11956;53.184;8.578;2023-03-02T20:20:21;2.80;99.90
23556;DHT22;11956;53.184;8.578;2023-03-02T20:23:24;2.80;99.90
23556;DHT22;11956;53.184;8.578;2023-03-02T20:26:26;2.80;99.90
23556;DHT22;11956;53.184;8.578;2023-03-02T20:29:28;2.90;99.90
23556;DHT22;11956;53.184;8.578;2023-03-02T20:32:29;2.90;99.90